sensor_id;sensor_type;location;lat;lon;timestamp;P1;durP1;ratioP1;P2;durP2;ratioP2
51852;SDS011;37894;53.172;6.598;2022-09-09T00:04:34;23.58;;;12.57;;
51852;SDS011;37894;53.172;6.598;2022-09-09T00:07:19;23.70;;;13.27;;
51852;SDS011;37894;53.172;6.598;2022-09-09T00:15:22;21.42;;;13.10;;
51852;SDS011;37894;53.172;6.598;2022-09-09T00:18:13;16.40;;;11.98;;
51852;SDS011;37894;53.172;6.598;2022-09-09T00:23:54;21.50;;;12.80;;
51852;SDS011;37894;53.172;6.598;2022-09-09T00:26:31;19.92;;;12.95;;
51852;SDS011;37894;53.172;6.598;2022-09-09T00:31:35;24.35;;;13.25;;
51852;SDS011;37894;53.172;6.598;2022-09-09T00:34:09;19.98;;;13.93;;
51852;SDS011;37894;53.172;6.598;2022-09-09T00:36:37;23.73;;;13.95;;
51852;SDS011;37894;53.172;6.598;2022-09-09T00:39:03;26.17;;;13.73;;
51852;SDS011;37894;53.172;6.598;2022-09-09T00:54:58;18.75;;;12.40;;
51852;SDS011;37894;53.172;6.598;2022-09-09T00:57:35;23.50;;;13.52;;
51852;SDS011;37894;53.172;6.598;2022-09-09T01:00:17;19.67;;;12.07;;
51852;SDS011;37894;53.172;6.598;2022-09-09T01:05:48;20.70;;;12.48;;
51852;SDS011;37894;53.172;6.598;2022-09-09T01:10:51;19.70;;;11.80;;
51852;SDS011;37894;53.172;6.598;2022-09-09T01:13:22;18.35;;;12.95;;
51852;SDS011;37894;53.172;6.598;2022-09-09T01:16:00;25.20;;;12.77;;
51852;SDS011;37894;53.172;6.598;2022-09-09T01:18:47;20.30;;;12.52;;
51852;SDS011;37894;53.172;6.598;2022-09-09T01:21:35;18.08;;;12.55;;
51852;SDS011;37894;53.172;6.598;2022-09-09T01:26:46;20.40;;;12.50;;
51852;SDS011;37894;53.172;6.598;2022-09-09T01:29:16;21.23;;;12.63;;
51852;SDS011;37894;53.172;6.598;2022-09-09T01:31:57;18.77;;;12.52;;
51852;SDS011;37894;53.172;6.598;2022-09-09T01:34:26;20.73;;;12.50;;
51852;SDS011;37894;53.172;6.598;2022-09-09T01:39:21;22.90;;;13.68;;
51852;SDS011;37894;53.172;6.598;2022-09-09T01:41:47;19.67;;;13.43;;
51852;SDS011;37894;53.172;6.598;2022-09-09T01:44:13;20.55;;;12.73;;
51852;SDS011;37894;53.172;6.598;2022-09-09T01:46:39;21.08;;;14.10;;
51852;SDS011;37894;53.172;6.598;2022-09-09T01:49:05;22.92;;;13.95;;
51852;SDS011;37894;53.172;6.598;2022-09-09T01:51:34;21.73;;;13.70;;
51852;SDS011;37894;53.172;6.598;2022-09-09T01:54:01;26.90;;;14.13;;
51852;SDS011;37894;53.172;6.598;2022-09-09T02:02:18;19.98;;;13.30;;
51852;SDS011;37894;53.172;6.598;2022-09-09T02:07:40;21.77;;;14.30;;
51852;SDS011;37894;53.172;6.598;2022-09-09T02:10:12;26.40;;;15.35;;
51852;SDS011;37894;53.172;6.598;2022-09-09T02:12:53;23.75;;;14.40;;
51852;SDS011;37894;53.172;6.598;2022-09-09T02:18:09;21.88;;;13.25;;
51852;SDS011;37894;53.172;6.598;2022-09-09T02:20:38;23.48;;;14.48;;
51852;SDS011;37894;53.172;6.598;2022-09-09T02:23:05;23.58;;;14.80;;
51852;SDS011;37894;53.172;6.598;2022-09-09T02:25:33;23.42;;;14.60;;
51852;SDS011;37894;53.172;6.598;2022-09-09T02:28:01;24.60;;;14.27;;
51852;SDS011;37894;53.172;6.598;2022-09-09T02:30:31;26.38;;;14.25;;
51852;SDS011;37894;53.172;6.598;2022-09-09T02:32:59;23.73;;;14.45;;
51852;SDS011;37894;53.172;6.598;2022-09-09T02:35:28;24.42;;;14.32;;
51852;SDS011;37894;53.172;6.598;2022-09-09T02:37:56;25.75;;;13.85;;
51852;SDS011;37894;53.172;6.598;2022-09-09T02:40:25;28.98;;;15.05;;
51852;SDS011;37894;53.172;6.598;2022-09-09T02:42:50;23.73;;;14.30;;
51852;SDS011;37894;53.172;6.598;2022-09-09T02:45:18;23.92;;;13.55;;
51852;SDS011;37894;53.172;6.598;2022-09-09T02:47:58;26.42;;;13.73;;
51852;SDS011;37894;53.172;6.598;2022-09-09T02:56:16;25.77;;;13.50;;
51852;SDS011;37894;53.172;6.598;2022-09-09T02:58:45;21.65;;;13.30;;
51852;SDS011;37894;53.172;6.598;2022-09-09T03:01:11;28.55;;;12.52;;
51852;SDS011;37894;53.172;6.598;2022-09-09T03:03:37;23.13;;;13.80;;
51852;SDS011;37894;53.172;6.598;2022-09-09T03:06:03;18.65;;;12.07;;
51852;SDS011;37894;53.172;6.598;2022-09-09T03:08:30;21.25;;;12.85;;
51852;SDS011;37894;53.172;6.598;2022-09-09T03:10:57;18.35;;;12.25;;
51852;SDS011;37894;53.172;6.598;2022-09-09T03:13:26;20.58;;;11.50;;
51852;SDS011;37894;53.172;6.598;2022-09-09T03:15:51;23.02;;;12.43;;
51852;SDS011;37894;53.172;6.598;2022-09-09T03:18:17;27.08;;;11.95;;
51852;SDS011;37894;53.172;6.598;2022-09-09T03:20:43;14.63;;;10.65;;
51852;SDS011;37894;53.172;6.598;2022-09-09T03:23:08;21.48;;;10.88;;
51852;SDS011;37894;53.172;6.598;2022-09-09T03:25:34;18.23;;;9.70;;
51852;SDS011;37894;53.172;6.598;2022-09-09T03:28:00;20.00;;;10.85;;
51852;SDS011;37894;53.172;6.598;2022-09-09T03:30:26;19.52;;;10.25;;
51852;SDS011;37894;53.172;6.598;2022-09-09T03:32:53;17.73;;;9.45;;
51852;SDS011;37894;53.172;6.598;2022-09-09T03:35:20;13.57;;;9.18;;
51852;SDS011;37894;53.172;6.598;2022-09-09T03:37:46;13.63;;;8.80;;
51852;SDS011;37894;53.172;6.598;2022-09-09T03:40:12;13.85;;;8.45;;
51852;SDS011;37894;53.172;6.598;2022-09-09T03:42:38;18.70;;;9.07;;
51852;SDS011;37894;53.172;6.598;2022-09-09T03:45:05;15.75;;;8.23;;
51852;SDS011;37894;53.172;6.598;2022-09-09T03:47:32;13.32;;;8.35;;
51852;SDS011;37894;53.172;6.598;2022-09-09T03:49:58;13.57;;;8.40;;
51852;SDS011;37894;53.172;6.598;2022-09-09T03:52:23;13.82;;;8.13;;
51852;SDS011;37894;53.172;6.598;2022-09-09T03:54:51;13.55;;;7.60;;
51852;SDS011;37894;53.172;6.598;2022-09-09T03:57:18;15.95;;;7.43;;
51852;SDS011;37894;53.172;6.598;2022-09-09T03:59:44;10.30;;;6.40;;
51852;SDS011;37894;53.172;6.598;2022-09-09T04:02:10;14.13;;;5.95;;
51852;SDS011;37894;53.172;6.598;2022-09-09T04:04:35;10.68;;;5.25;;
51852;SDS011;37894;53.172;6.598;2022-09-09T04:07:01;14.13;;;4.72;;
51852;SDS011;37894;53.172;6.598;2022-09-09T04:09:27;12.82;;;4.38;;
51852;SDS011;37894;53.172;6.598;2022-09-09T04:11:53;18.25;;;4.68;;
51852;SDS011;37894;53.172;6.598;2022-09-09T04:14:20;9.63;;;3.83;;
51852;SDS011;37894;53.172;6.598;2022-09-09T04:16:46;12.50;;;4.40;;
51852;SDS011;37894;53.172;6.598;2022-09-09T04:19:12;9.23;;;5.15;;
51852;SDS011;37894;53.172;6.598;2022-09-09T04:21:39;10.45;;;4.68;;
51852;SDS011;37894;53.172;6.598;2022-09-09T04:24:09;8.35;;;4.75;;
51852;SDS011;37894;53.172;6.598;2022-09-09T04:26:35;11.50;;;4.65;;
51852;SDS011;37894;53.172;6.598;2022-09-09T04:29:02;10.27;;;4.80;;
51852;SDS011;37894;53.172;6.598;2022-09-09T04:31:28;14.52;;;5.05;;
51852;SDS011;37894;53.172;6.598;2022-09-09T04:33:54;8.48;;;4.18;;
51852;SDS011;37894;53.172;6.598;2022-09-09T04:36:19;8.15;;;4.60;;
51852;SDS011;37894;53.172;6.598;2022-09-09T04:38:45;10.65;;;5.07;;
51852;SDS011;37894;53.172;6.598;2022-09-09T04:41:13;10.30;;;5.03;;
51852;SDS011;37894;53.172;6.598;2022-09-09T04:43:39;10.68;;;5.30;;
51852;SDS011;37894;53.172;6.598;2022-09-09T04:46:05;10.80;;;5.35;;
51852;SDS011;37894;53.172;6.598;2022-09-09T04:48:31;14.73;;;6.63;;
51852;SDS011;37894;53.172;6.598;2022-09-09T04:51:01;13.68;;;5.82;;
51852;SDS011;37894;53.172;6.598;2022-09-09T04:53:29;13.00;;;6.47;;
51852;SDS011;37894;53.172;6.598;2022-09-09T04:56:14;14.95;;;7.00;;
51852;SDS011;37894;53.172;6.598;2022-09-09T04:58:41;12.90;;;6.47;;
51852;SDS011;37894;53.172;6.598;2022-09-09T05:03:42;11.57;;;6.93;;
51852;SDS011;37894;53.172;6.598;2022-09-09T05:06:11;14.13;;;7.50;;
51852;SDS011;37894;53.172;6.598;2022-09-09T05:08:42;11.38;;;7.35;;
51852;SDS011;37894;53.172;6.598;2022-09-09T05:11:22;12.43;;;7.40;;
51852;SDS011;37894;53.172;6.598;2022-09-09T05:13:49;15.02;;;8.00;;
51852;SDS011;37894;53.172;6.598;2022-09-09T05:16:16;15.70;;;8.40;;
51852;SDS011;37894;53.172;6.598;2022-09-09T05:18:42;20.92;;;8.45;;
51852;SDS011;37894;53.172;6.598;2022-09-09T05:21:09;16.55;;;8.30;;
51852;SDS011;37894;53.172;6.598;2022-09-09T05:23:36;15.82;;;8.48;;
51852;SDS011;37894;53.172;6.598;2022-09-09T05:26:02;13.63;;;8.30;;
51852;SDS011;37894;53.172;6.598;2022-09-09T05:28:29;17.60;;;8.90;;
51852;SDS011;37894;53.172;6.598;2022-09-09T05:30:59;18.95;;;9.77;;
51852;SDS011;37894;53.172;6.598;2022-09-09T05:33:30;18.08;;;10.43;;
51852;SDS011;37894;53.172;6.598;2022-09-09T05:35:57;16.42;;;9.45;;
51852;SDS011;37894;53.172;6.598;2022-09-09T05:38:28;15.80;;;9.38;;
51852;SDS011;37894;53.172;6.598;2022-09-09T05:40:54;20.63;;;9.65;;
51852;SDS011;37894;53.172;6.598;2022-09-09T05:43:22;16.10;;;10.05;;
51852;SDS011;37894;53.172;6.598;2022-09-09T05:45:48;17.63;;;11.00;;
51852;SDS011;37894;53.172;6.598;2022-09-09T05:50:57;22.13;;;11.00;;
51852;SDS011;37894;53.172;6.598;2022-09-09T05:53:23;21.95;;;10.88;;
51852;SDS011;37894;53.172;6.598;2022-09-09T05:55:49;20.67;;;11.38;;
51852;SDS011;37894;53.172;6.598;2022-09-09T05:58:15;22.35;;;12.20;;
51852;SDS011;37894;53.172;6.598;2022-09-09T06:00:42;21.83;;;11.45;;
51852;SDS011;37894;53.172;6.598;2022-09-09T06:03:12;20.77;;;11.48;;
51852;SDS011;37894;53.172;6.598;2022-09-09T06:05:37;18.98;;;12.25;;
51852;SDS011;37894;53.172;6.598;2022-09-09T06:08:03;22.70;;;11.93;;
51852;SDS011;37894;53.172;6.598;2022-09-09T06:10:29;23.15;;;11.68;;
51852;SDS011;37894;53.172;6.598;2022-09-09T06:12:54;20.05;;;11.25;;
51852;SDS011;37894;53.172;6.598;2022-09-09T06:15:20;19.63;;;10.77;;
51852;SDS011;37894;53.172;6.598;2022-09-09T06:17:46;21.92;;;11.60;;
51852;SDS011;37894;53.172;6.598;2022-09-09T06:20:12;16.40;;;10.23;;
51852;SDS011;37894;53.172;6.598;2022-09-09T06:22:39;19.30;;;10.43;;
51852;SDS011;37894;53.172;6.598;2022-09-09T06:25:08;18.98;;;11.43;;
51852;SDS011;37894;53.172;6.598;2022-09-09T06:27:34;16.52;;;10.00;;
51852;SDS011;37894;53.172;6.598;2022-09-09T06:30:00;16.15;;;10.07;;
51852;SDS011;37894;53.172;6.598;2022-09-09T06:32:26;15.73;;;9.45;;
51852;SDS011;37894;53.172;6.598;2022-09-09T06:34:52;15.63;;;9.77;;
51852;SDS011;37894;53.172;6.598;2022-09-09T06:37:17;15.48;;;10.43;;
51852;SDS011;37894;53.172;6.598;2022-09-09T06:39:43;16.48;;;9.85;;
51852;SDS011;37894;53.172;6.598;2022-09-09T06:42:09;15.68;;;10.98;;
51852;SDS011;37894;53.172;6.598;2022-09-09T06:44:34;15.38;;;9.40;;
51852;SDS011;37894;53.172;6.598;2022-09-09T06:47:01;12.80;;;8.32;;
51852;SDS011;37894;53.172;6.598;2022-09-09T06:49:27;18.27;;;9.93;;
51852;SDS011;37894;53.172;6.598;2022-09-09T06:51:52;15.13;;;9.75;;
51852;SDS011;37894;53.172;6.598;2022-09-09T06:54:19;14.55;;;9.38;;
51852;SDS011;37894;53.172;6.598;2022-09-09T06:56:45;16.52;;;9.52;;
51852;SDS011;37894;53.172;6.598;2022-09-09T06:59:11;14.23;;;9.38;;
51852;SDS011;37894;53.172;6.598;2022-09-09T07:01:38;16.35;;;9.90;;
51852;SDS011;37894;53.172;6.598;2022-09-09T07:04:11;16.25;;;9.30;;
51852;SDS011;37894;53.172;6.598;2022-09-09T07:06:39;16.08;;;9.20;;
51852;SDS011;37894;53.172;6.598;2022-09-09T07:09:09;16.73;;;9.23;;
51852;SDS011;37894;53.172;6.598;2022-09-09T07:11:40;13.77;;;9.40;;
51852;SDS011;37894;53.172;6.598;2022-09-09T07:14:13;15.77;;;9.10;;
51852;SDS011;37894;53.172;6.598;2022-09-09T07:16:43;16.63;;;9.75;;
51852;SDS011;37894;53.172;6.598;2022-09-09T07:19:10;15.55;;;9.63;;
51852;SDS011;37894;53.172;6.598;2022-09-09T07:21:36;13.02;;;9.05;;
51852;SDS011;37894;53.172;6.598;2022-09-09T07:24:02;11.18;;;8.05;;
51852;SDS011;37894;53.172;6.598;2022-09-09T07:26:30;13.80;;;8.35;;
51852;SDS011;37894;53.172;6.598;2022-09-09T07:28:56;15.60;;;9.13;;
51852;SDS011;37894;53.172;6.598;2022-09-09T07:31:23;17.85;;;9.52;;
51852;SDS011;37894;53.172;6.598;2022-09-09T07:34:01;16.23;;;9.63;;
51852;SDS011;37894;53.172;6.598;2022-09-09T07:36:28;16.60;;;9.05;;
51852;SDS011;37894;53.172;6.598;2022-09-09T07:38:56;13.88;;;8.70;;
51852;SDS011;37894;53.172;6.598;2022-09-09T07:41:25;13.50;;;8.77;;
51852;SDS011;37894;53.172;6.598;2022-09-09T07:43:59;13.18;;;7.32;;
51852;SDS011;37894;53.172;6.598;2022-09-09T07:46:29;12.88;;;8.00;;
51852;SDS011;37894;53.172;6.598;2022-09-09T07:48:56;14.23;;;7.47;;
51852;SDS011;37894;53.172;6.598;2022-09-09T07:51:30;12.63;;;7.70;;
51852;SDS011;37894;53.172;6.598;2022-09-09T07:54:01;10.70;;;7.70;;
51852;SDS011;37894;53.172;6.598;2022-09-09T07:56:34;10.43;;;7.55;;
51852;SDS011;37894;53.172;6.598;2022-09-09T07:59:01;14.07;;;7.93;;
51852;SDS011;37894;53.172;6.598;2022-09-09T08:01:30;11.43;;;7.60;;
51852;SDS011;37894;53.172;6.598;2022-09-09T08:04:15;14.32;;;7.85;;
51852;SDS011;37894;53.172;6.598;2022-09-09T08:06:47;13.52;;;8.27;;
51852;SDS011;37894;53.172;6.598;2022-09-09T08:09:14;14.57;;;8.63;;
51852;SDS011;37894;53.172;6.598;2022-09-09T08:11:40;9.88;;;7.18;;
51852;SDS011;37894;53.172;6.598;2022-09-09T08:14:07;12.82;;;6.90;;
51852;SDS011;37894;53.172;6.598;2022-09-09T08:16:35;10.70;;;6.40;;
51852;SDS011;37894;53.172;6.598;2022-09-09T08:19:06;9.65;;;6.60;;
51852;SDS011;37894;53.172;6.598;2022-09-09T08:21:33;11.00;;;6.97;;
51852;SDS011;37894;53.172;6.598;2022-09-09T08:24:02;15.20;;;6.55;;
51852;SDS011;37894;53.172;6.598;2022-09-09T08:26:33;10.98;;;5.68;;
51852;SDS011;37894;53.172;6.598;2022-09-09T08:29:02;10.15;;;5.53;;
51852;SDS011;37894;53.172;6.598;2022-09-09T08:31:31;8.60;;;5.53;;
51852;SDS011;37894;53.172;6.598;2022-09-09T08:33:58;9.60;;;5.88;;
51852;SDS011;37894;53.172;6.598;2022-09-09T08:36:25;9.75;;;5.85;;
51852;SDS011;37894;53.172;6.598;2022-09-09T08:38:53;14.02;;;5.47;;
51852;SDS011;37894;53.172;6.598;2022-09-09T08:41:36;9.05;;;5.45;;
51852;SDS011;37894;53.172;6.598;2022-09-09T08:44:18;9.55;;;5.90;;
51852;SDS011;37894;53.172;6.598;2022-09-09T08:46:52;7.80;;;5.65;;
51852;SDS011;37894;53.172;6.598;2022-09-09T08:52:37;10.45;;;5.68;;
51852;SDS011;37894;53.172;6.598;2022-09-09T08:58:17;10.77;;;5.75;;
51852;SDS011;37894;53.172;6.598;2022-09-09T09:11:49;11.30;;;5.63;;
51852;SDS011;37894;53.172;6.598;2022-09-09T09:19:42;14.52;;;5.97;;
51852;SDS011;37894;53.172;6.598;2022-09-09T09:22:22;11.93;;;6.07;;
51852;SDS011;37894;53.172;6.598;2022-09-09T09:24:56;9.15;;;5.35;;
51852;SDS011;37894;53.172;6.598;2022-09-09T09:27:40;12.40;;;5.50;;
51852;SDS011;37894;53.172;6.598;2022-09-09T09:30:22;9.52;;;4.72;;
51852;SDS011;37894;53.172;6.598;2022-09-09T09:32:59;9.10;;;5.00;;
51852;SDS011;37894;53.172;6.598;2022-09-09T09:35:28;10.48;;;5.18;;
51852;SDS011;37894;53.172;6.598;2022-09-09T09:37:54;8.88;;;4.45;;
51852;SDS011;37894;53.172;6.598;2022-09-09T09:40:20;9.88;;;4.13;;
51852;SDS011;37894;53.172;6.598;2022-09-09T09:45:29;10.85;;;4.53;;
51852;SDS011;37894;53.172;6.598;2022-09-09T09:48:00;7.97;;;3.60;;
51852;SDS011;37894;53.172;6.598;2022-09-09T09:50:30;10.95;;;3.65;;
51852;SDS011;37894;53.172;6.598;2022-09-09T09:52:59;9.57;;;3.20;;
51852;SDS011;37894;53.172;6.598;2022-09-09T09:55:30;8.13;;;3.17;;
51852;SDS011;37894;53.172;6.598;2022-09-09T09:58:05;7.90;;;3.20;;
51852;SDS011;37894;53.172;6.598;2022-09-09T10:00:31;6.65;;;3.33;;
51852;SDS011;37894;53.172;6.598;2022-09-09T10:03:00;10.88;;;3.70;;
51852;SDS011;37894;53.172;6.598;2022-09-09T10:05:28;8.02;;;3.60;;
51852;SDS011;37894;53.172;6.598;2022-09-09T10:32:15;6.32;;;2.58;;
51852;SDS011;37894;53.172;6.598;2022-09-09T10:37:41;10.02;;;2.25;;
51852;SDS011;37894;53.172;6.598;2022-09-09T10:40:18;12.52;;;2.63;;
51852;SDS011;37894;53.172;6.598;2022-09-09T10:42:50;6.03;;;2.22;;
51852;SDS011;37894;53.172;6.598;2022-09-09T10:45:23;8.00;;;2.58;;
51852;SDS011;37894;53.172;6.598;2022-09-09T10:48:10;7.22;;;2.35;;
51852;SDS011;37894;53.172;6.598;2022-09-09T10:56:37;11.07;;;2.22;;
51852;SDS011;37894;53.172;6.598;2022-09-09T10:59:11;8.10;;;2.20;;
51852;SDS011;37894;53.172;6.598;2022-09-09T11:01:54;7.57;;;2.10;;
51852;SDS011;37894;53.172;6.598;2022-09-09T11:04:27;7.80;;;1.92;;
51852;SDS011;37894;53.172;6.598;2022-09-09T11:07:10;6.55;;;2.60;;
51852;SDS011;37894;53.172;6.598;2022-09-09T11:09:42;9.50;;;2.72;;
51852;SDS011;37894;53.172;6.598;2022-09-09T11:12:15;8.20;;;1.85;;
51852;SDS011;37894;53.172;6.598;2022-09-09T11:14:53;5.50;;;1.90;;
51852;SDS011;37894;53.172;6.598;2022-09-09T11:17:29;6.30;;;1.70;;
51852;SDS011;37894;53.172;6.598;2022-09-09T11:20:01;6.57;;;1.80;;
51852;SDS011;37894;53.172;6.598;2022-09-09T11:22:37;6.60;;;2.35;;
51852;SDS011;37894;53.172;6.598;2022-09-09T11:36:42;7.00;;;1.80;;
51852;SDS011;37894;53.172;6.598;2022-09-09T11:44:39;5.43;;;1.70;;
51852;SDS011;37894;53.172;6.598;2022-09-09T11:47:22;5.10;;;1.58;;
51852;SDS011;37894;53.172;6.598;2022-09-09T11:49:54;5.28;;;1.48;;
51852;SDS011;37894;53.172;6.598;2022-09-09T11:54:51;7.88;;;2.00;;
51852;SDS011;37894;53.172;6.598;2022-09-09T11:59:57;6.95;;;1.80;;
51852;SDS011;37894;53.172;6.598;2022-09-09T12:02:24;7.03;;;1.77;;
51852;SDS011;37894;53.172;6.598;2022-09-09T12:04:56;6.75;;;1.40;;
51852;SDS011;37894;53.172;6.598;2022-09-09T12:09:52;4.90;;;1.73;;
51852;SDS011;37894;53.172;6.598;2022-09-09T12:12:25;6.97;;;1.70;;
51852;SDS011;37894;53.172;6.598;2022-09-09T12:17:28;5.47;;;1.35;;
51852;SDS011;37894;53.172;6.598;2022-09-09T12:22:39;8.65;;;1.80;;
51852;SDS011;37894;53.172;6.598;2022-09-09T12:25:33;8.60;;;1.90;;
51852;SDS011;37894;53.172;6.598;2022-09-09T12:28:05;6.30;;;1.20;;
51852;SDS011;37894;53.172;6.598;2022-09-09T12:30:56;5.60;;;1.60;;
51852;SDS011;37894;53.172;6.598;2022-09-09T12:33:42;9.27;;;1.88;;
51852;SDS011;37894;53.172;6.598;2022-09-09T12:36:15;8.00;;;1.85;;
51852;SDS011;37894;53.172;6.598;2022-09-09T12:38:44;3.70;;;1.42;;
51852;SDS011;37894;53.172;6.598;2022-09-09T12:41:24;5.80;;;1.80;;
51852;SDS011;37894;53.172;6.598;2022-09-09T12:44:08;5.80;;;1.50;;
51852;SDS011;37894;53.172;6.598;2022-09-09T12:46:39;5.95;;;1.80;;
51852;SDS011;37894;53.172;6.598;2022-09-09T12:49:28;5.68;;;1.48;;
51852;SDS011;37894;53.172;6.598;2022-09-09T12:51:59;7.50;;;1.98;;
51852;SDS011;37894;53.172;6.598;2022-09-09T12:54:28;8.70;;;2.25;;
51852;SDS011;37894;53.172;6.598;2022-09-09T12:56:54;6.70;;;2.00;;
51852;SDS011;37894;53.172;6.598;2022-09-09T12:59:27;6.40;;;2.13;;
51852;SDS011;37894;53.172;6.598;2022-09-09T13:02:01;6.03;;;1.80;;
51852;SDS011;37894;53.172;6.598;2022-09-09T13:04:27;6.43;;;1.50;;
51852;SDS011;37894;53.172;6.598;2022-09-09T13:06:52;6.88;;;1.90;;
51852;SDS011;37894;53.172;6.598;2022-09-09T13:09:18;9.98;;;2.17;;
51852;SDS011;37894;53.172;6.598;2022-09-09T13:11:52;9.52;;;2.08;;
51852;SDS011;37894;53.172;6.598;2022-09-09T13:14:31;7.00;;;1.60;;
51852;SDS011;37894;53.172;6.598;2022-09-09T13:17:03;7.27;;;1.70;;
51852;SDS011;37894;53.172;6.598;2022-09-09T13:19:32;3.25;;;1.25;;
51852;SDS011;37894;53.172;6.598;2022-09-09T13:22:14;6.78;;;1.40;;
51852;SDS011;37894;53.172;6.598;2022-09-09T13:24:59;3.88;;;1.40;;
51852;SDS011;37894;53.172;6.598;2022-09-09T13:27:33;6.10;;;1.70;;
51852;SDS011;37894;53.172;6.598;2022-09-09T13:30:19;7.47;;;1.77;;
51852;SDS011;37894;53.172;6.598;2022-09-09T13:32:47;6.10;;;1.60;;
51852;SDS011;37894;53.172;6.598;2022-09-09T13:35:26;3.58;;;1.25;;
51852;SDS011;37894;53.172;6.598;2022-09-09T13:37:52;6.80;;;1.50;;
51852;SDS011;37894;53.172;6.598;2022-09-09T13:40:19;7.70;;;1.63;;
51852;SDS011;37894;53.172;6.598;2022-09-09T13:42:47;3.72;;;1.30;;
51852;SDS011;37894;53.172;6.598;2022-09-09T13:45:17;6.88;;;1.60;;
51852;SDS011;37894;53.172;6.598;2022-09-09T13:47:48;5.90;;;1.93;;
51852;SDS011;37894;53.172;6.598;2022-09-09T13:52:54;5.63;;;1.65;;
51852;SDS011;37894;53.172;6.598;2022-09-09T13:55:23;5.47;;;1.40;;
51852;SDS011;37894;53.172;6.598;2022-09-09T13:57:55;5.07;;;1.33;;
51852;SDS011;37894;53.172;6.598;2022-09-09T14:00:22;5.43;;;1.55;;
51852;SDS011;37894;53.172;6.598;2022-09-09T14:02:51;1.88;;;0.70;;
51852;SDS011;37894;53.172;6.598;2022-09-09T14:05:20;2.30;;;0.70;;
51852;SDS011;37894;53.172;6.598;2022-09-09T14:07:47;2.30;;;0.55;;
51852;SDS011;37894;53.172;6.598;2022-09-09T14:10:14;2.30;;;0.50;;
51852;SDS011;37894;53.172;6.598;2022-09-09T14:12:40;1.52;;;0.60;;
51852;SDS011;37894;53.172;6.598;2022-09-09T14:15:06;2.90;;;0.70;;
51852;SDS011;37894;53.172;6.598;2022-09-09T14:17:34;3.22;;;1.00;;
51852;SDS011;37894;53.172;6.598;2022-09-09T14:20:01;1.30;;;0.60;;
51852;SDS011;37894;53.172;6.598;2022-09-09T14:22:34;1.98;;;0.80;;
51852;SDS011;37894;53.172;6.598;2022-09-09T14:25:01;2.33;;;0.70;;
51852;SDS011;37894;53.172;6.598;2022-09-09T14:27:27;3.30;;;0.80;;
51852;SDS011;37894;53.172;6.598;2022-09-09T14:29:53;1.85;;;0.80;;
51852;SDS011;37894;53.172;6.598;2022-09-09T14:32:19;4.68;;;0.93;;
51852;SDS011;37894;53.172;6.598;2022-09-09T14:34:46;4.30;;;1.10;;
51852;SDS011;37894;53.172;6.598;2022-09-09T14:37:14;6.43;;;2.10;;
51852;SDS011;37894;53.172;6.598;2022-09-09T14:39:42;2.75;;;0.80;;
51852;SDS011;37894;53.172;6.598;2022-09-09T14:42:09;4.90;;;0.93;;
51852;SDS011;37894;53.172;6.598;2022-09-09T14:44:36;4.05;;;1.10;;
51852;SDS011;37894;53.172;6.598;2022-09-09T14:47:04;5.68;;;1.42;;
51852;SDS011;37894;53.172;6.598;2022-09-09T14:49:30;5.90;;;1.10;;
51852;SDS011;37894;53.172;6.598;2022-09-09T14:51:56;3.20;;;1.10;;
51852;SDS011;37894;53.172;6.598;2022-09-09T14:54:22;4.93;;;1.50;;
51852;SDS011;37894;53.172;6.598;2022-09-09T14:56:48;7.13;;;1.40;;
51852;SDS011;37894;53.172;6.598;2022-09-09T14:59:13;3.88;;;1.20;;
51852;SDS011;37894;53.172;6.598;2022-09-09T15:01:39;9.05;;;1.98;;
51852;SDS011;37894;53.172;6.598;2022-09-09T15:04:05;8.23;;;1.80;;
51852;SDS011;37894;53.172;6.598;2022-09-09T15:06:32;5.72;;;1.63;;
51852;SDS011;37894;53.172;6.598;2022-09-09T15:08:59;6.38;;;1.77;;
51852;SDS011;37894;53.172;6.598;2022-09-09T15:11:26;6.72;;;1.80;;
51852;SDS011;37894;53.172;6.598;2022-09-09T15:13:53;7.25;;;2.03;;
51852;SDS011;37894;53.172;6.598;2022-09-09T15:16:19;8.13;;;1.60;;
51852;SDS011;37894;53.172;6.598;2022-09-09T15:18:49;3.35;;;1.65;;
51852;SDS011;37894;53.172;6.598;2022-09-09T15:21:17;5.85;;;2.03;;
51852;SDS011;37894;53.172;6.598;2022-09-09T15:23:45;7.88;;;2.10;;
51852;SDS011;37894;53.172;6.598;2022-09-09T15:26:12;7.03;;;1.70;;
51852;SDS011;37894;53.172;6.598;2022-09-09T15:28:41;3.58;;;1.50;;
51852;SDS011;37894;53.172;6.598;2022-09-09T15:31:19;7.03;;;2.75;;
51852;SDS011;37894;53.172;6.598;2022-09-09T15:33:56;6.22;;;1.55;;
51852;SDS011;37894;53.172;6.598;2022-09-09T15:39:00;3.75;;;1.30;;
51852;SDS011;37894;53.172;6.598;2022-09-09T15:41:28;4.78;;;1.40;;
51852;SDS011;37894;53.172;6.598;2022-09-09T15:43:55;3.70;;;1.33;;
51852;SDS011;37894;53.172;6.598;2022-09-09T15:46:23;3.67;;;1.10;;
51852;SDS011;37894;53.172;6.598;2022-09-09T15:48:49;4.25;;;1.10;;
51852;SDS011;37894;53.172;6.598;2022-09-09T15:51:15;2.35;;;1.08;;
51852;SDS011;37894;53.172;6.598;2022-09-09T15:53:41;2.88;;;1.40;;
51852;SDS011;37894;53.172;6.598;2022-09-09T15:56:08;4.78;;;1.20;;
51852;SDS011;37894;53.172;6.598;2022-09-09T15:58:34;2.30;;;1.02;;
51852;SDS011;37894;53.172;6.598;2022-09-09T16:01:07;3.38;;;1.35;;
51852;SDS011;37894;53.172;6.598;2022-09-09T16:03:35;3.72;;;1.30;;
51852;SDS011;37894;53.172;6.598;2022-09-09T16:06:06;2.83;;;1.00;;
51852;SDS011;37894;53.172;6.598;2022-09-09T16:08:35;4.88;;;1.20;;
51852;SDS011;37894;53.172;6.598;2022-09-09T16:13:38;4.13;;;1.30;;
51852;SDS011;37894;53.172;6.598;2022-09-09T16:16:04;4.00;;;1.40;;
51852;SDS011;37894;53.172;6.598;2022-09-09T16:18:35;4.07;;;1.50;;
51852;SDS011;37894;53.172;6.598;2022-09-09T16:21:01;6.13;;;1.80;;
51852;SDS011;37894;53.172;6.598;2022-09-09T16:23:28;4.45;;;1.42;;
51852;SDS011;37894;53.172;6.598;2022-09-09T16:25:56;3.35;;;1.38;;
51852;SDS011;37894;53.172;6.598;2022-09-09T16:28:22;4.55;;;1.60;;
51852;SDS011;37894;53.172;6.598;2022-09-09T16:30:48;4.40;;;1.50;;
51852;SDS011;37894;53.172;6.598;2022-09-09T16:33:14;5.05;;;1.58;;
51852;SDS011;37894;53.172;6.598;2022-09-09T16:35:41;3.28;;;1.50;;
51852;SDS011;37894;53.172;6.598;2022-09-09T16:38:07;3.08;;;1.77;;
51852;SDS011;37894;53.172;6.598;2022-09-09T16:40:37;3.65;;;1.70;;
51852;SDS011;37894;53.172;6.598;2022-09-09T16:43:03;6.82;;;2.20;;
51852;SDS011;37894;53.172;6.598;2022-09-09T16:45:30;3.38;;;1.58;;
51852;SDS011;37894;53.172;6.598;2022-09-09T16:47:57;4.53;;;1.70;;
51852;SDS011;37894;53.172;6.598;2022-09-09T16:50:23;4.22;;;1.55;;
51852;SDS011;37894;53.172;6.598;2022-09-09T16:52:50;5.13;;;1.70;;
51852;SDS011;37894;53.172;6.598;2022-09-09T16:55:16;3.88;;;1.50;;
51852;SDS011;37894;53.172;6.598;2022-09-09T16:57:45;5.88;;;1.70;;
51852;SDS011;37894;53.172;6.598;2022-09-09T17:00:14;4.10;;;1.60;;
51852;SDS011;37894;53.172;6.598;2022-09-09T17:02:42;6.10;;;1.88;;
51852;SDS011;37894;53.172;6.598;2022-09-09T17:05:08;4.75;;;2.10;;
51852;SDS011;37894;53.172;6.598;2022-09-09T17:07:34;3.63;;;1.77;;
51852;SDS011;37894;53.172;6.598;2022-09-09T17:10:00;5.50;;;1.80;;
51852;SDS011;37894;53.172;6.598;2022-09-09T17:12:26;5.40;;;2.17;;
51852;SDS011;37894;53.172;6.598;2022-09-09T17:14:52;6.38;;;1.90;;
51852;SDS011;37894;53.172;6.598;2022-09-09T17:17:20;5.40;;;2.00;;
51852;SDS011;37894;53.172;6.598;2022-09-09T17:19:46;2.70;;;1.55;;
51852;SDS011;37894;53.172;6.598;2022-09-09T17:22:12;6.60;;;2.10;;
51852;SDS011;37894;53.172;6.598;2022-09-09T17:24:38;6.00;;;2.10;;
51852;SDS011;37894;53.172;6.598;2022-09-09T17:27:05;4.32;;;1.95;;
51852;SDS011;37894;53.172;6.598;2022-09-09T17:29:32;5.72;;;2.63;;